Time;durP1;ratioP1;P1;durP2;ratioP2;P2;SDS_P1;SDS_P2;PMS_P1;PMS_P2;Temp;Humidity;BMP_temperature;BMP_pressure;BME280_temperature;BME280_humidity;BME280_pressure;Samples;Min_cycle;Max_cycle;Signal;HPM_P1;HPM_P2
2021/12/29 00:01:05;;;;;;;6.95;3.63;;;7.30;99.90;;;;;;5014441;28;20042;-70
2021/12/29 00:03:30;;;;;;;8.07;4.22;;;7.30;99.90;;;;;;5014020;28;20091;-69
2021/12/29 00:05:56;;;;;;;10.32;4.47;;;7.30;99.90;;;;;;5014215;28;20034;-69
2021/12/29 00:08:22;;;;;;;11.57;5.65;;;7.30;99.90;;;;;;5014061;28;20045;-69
2021/12/29 00:10:54;;;;;;;11.48;5.65;;;7.30;99.90;;;;;;5012728;28;20483;-70
2021/12/29 00:13:20;;;;;;;12.60;6.22;;;7.30;99.90;;;;;;5014048;28;20120;-70
2021/12/29 00:15:46;;;;;;;11.27;5.60;;;7.30;99.90;;;;;;5014086;28;20042;-70
2021/12/29 00:18:12;;;;;;;10.82;5.28;;;7.30;99.90;;;;;;5013942;28;20096;-69
2021/12/29 00:20:37;;;;;;;8.55;5.47;;;7.30;99.90;;;;;;5013848;28;20045;-69
2021/12/29 00:23:05;;;;;;;9.15;5.20;;;7.30;99.90;;;;;;5012818;28;20049;-69
2021/12/29 00:25:31;;;;;;;9.07;4.60;;;7.30;99.90;;;;;;5013468;28;20095;-68
2021/12/29 00:27:59;;;;;;;5.72;3.72;;;7.30;99.90;;;;;;5013745;28;20042;-69
2021/12/29 00:30:26;;;;;;;9.13;4.43;;;7.20;99.90;;;;;;5013805;28;20046;-69
2021/12/29 00:32:52;;;;;;;9.25;4.78;;;7.30;99.90;;;;;;5013445;28;20108;-69
2021/12/29 00:35:17;;;;;;;8.77;3.70;;;7.30;99.90;;;;;;5028836;28;20056;-69
2021/12/29 00:37:44;;;;;;;8.48;4.20;;;7.20;99.90;;;;;;5013881;28;20502;-69
2021/12/29 00:40:10;;;;;;;7.22;3.95;;;7.30;99.90;;;;;;5013624;28;20049;-69
2021/12/29 00:42:36;;;;;;;7.93;4.18;;;7.30;99.90;;;;;;5011932;28;20120;-68
2021/12/29 00:45:02;;;;;;;8.35;4.13;;;7.20;99.90;;;;;;5013641;28;20137;-70
2021/12/29 00:47:31;;;;;;;7.93;4.10;;;7.20;99.90;;;;;;5013490;28;20038;-69
2021/12/29 00:49:59;;;;;;;7.85;4.18;;;7.20;99.90;;;;;;5013501;28;20042;-69
2021/12/29 00:52:24;;;;;;;9.75;4.32;;;7.20;99.90;;;;;;5013363;28;20108;-69
2021/12/29 00:54:50;;;;;;;8.43;4.15;;;7.20;99.90;;;;;;5028709;28;20041;-68
2021/12/29 00:57:15;;;;;;;8.68;4.32;;;7.20;99.90;;;;;;5013537;28;20038;-69
2021/12/29 00:59:41;;;;;;;9.50;4.10;;;7.20;99.90;;;;;;5012233;28;20450;-69
2021/12/29 01:02:07;;;;;;;10.48;4.55;;;7.30;99.90;;;;;;5011847;28;20405;-69
2021/12/29 01:04:33;;;;;;;8.23;4.10;;;7.30;99.90;;;;;;5013000;28;20038;-69
2021/12/29 01:06:59;;;;;;;10.90;4.35;;;7.30;99.90;;;;;;5013194;28;20095;-69
2021/12/29 01:09:25;;;;;;;11.77;4.88;;;7.30;99.90;;;;;;5012932;28;20441;-70
2021/12/29 01:11:54;;;;;;;10.18;4.63;;;7.30;99.90;;;;;;5012821;28;20116;-69
2021/12/29 01:14:22;;;;;;;7.45;4.65;;;7.30;99.90;;;;;;5012231;28;20045;-69
2021/12/29 01:16:48;;;;;;;8.50;4.93;;;7.40;99.90;;;;;;5028731;28;20030;-70
2021/12/29 01:19:18;;;;;;;12.10;5.78;;;7.30;99.90;;;;;;5013045;28;20426;-70
2021/12/29 01:21:46;;;;;;;12.25;5.57;;;7.30;99.90;;;;;;5012932;28;20413;-69
2021/12/29 01:24:13;;;;;;;13.10;5.25;;;7.30;99.90;;;;;;5012862;28;20494;-69
2021/12/29 01:26:41;;;;;;;15.02;6.00;;;7.30;99.90;;;;;;5011274;28;20084;-69
2021/12/29 01:29:07;;;;;;;16.15;7.30;;;7.30;99.90;;;;;;5012557;28;20423;-69
2021/12/29 01:31:33;;;;;;;17.30;6.53;;;7.30;99.90;;;;;;5012439;28;20125;-69
2021/12/29 01:33:59;;;;;;;14.23;6.05;;;7.30;99.90;;;;;;5012574;28;20045;-70
2021/12/29 01:36:25;;;;;;;15.20;7.03;;;7.30;99.90;;;;;;5012282;28;20053;-69
2021/12/29 01:38:51;;;;;;;16.90;7.20;;;7.30;99.90;;;;;;5012543;28;20056;-69
2021/12/29 01:41:17;;;;;;;16.33;7.15;;;7.30;99.90;;;;;;5012413;28;20034;-69
2021/12/29 01:43:43;;;;;;;17.27;7.80;;;7.40;99.90;;;;;;5027361;28;20053;-69
2021/12/29 01:46:09;;;;;;;18.20;6.88;;;7.30;99.90;;;;;;5012262;28;20528;-70
2021/12/29 01:48:35;;;;;;;19.75;7.10;;;7.40;99.90;;;;;;5012514;28;20053;-69
2021/12/29 01:51:00;;;;;;;17.60;7.40;;;7.40;99.90;;;;;;5012228;28;20120;-69
2021/12/29 01:53:30;;;;;;;18.38;7.78;;;7.30;99.90;;;;;;5012081;28;20089;-69
2021/12/29 01:55:56;;;;;;;22.48;8.15;;;7.30;99.90;;;;;;5012127;28;20045;-69
2021/12/29 01:58:23;;;;;;;21.10;7.00;;;7.30;99.90;;;;;;5012122;28;20041;-69
2021/12/29 02:00:50;;;;;;;20.85;7.18;;;7.30;99.90;;;;;;5011875;28;20033;-69
2021/12/29 02:03:16;;;;;;;22.58;7.22;;;7.30;99.90;;;;;;5011985;28;20406;-69
2021/12/29 02:05:42;;;;;;;20.83;7.70;;;7.30;99.90;;;;;;5012101;28;20038;-69
2021/12/29 02:08:09;;;;;;;24.35;7.53;;;7.30;99.90;;;;;;5027048;28;20561;-69
2021/12/29 02:10:42;;;;;;;21.67;7.95;;;7.30;99.90;;;;;;5011789;28;20426;-70
2021/12/29 02:13:10;;;;;;;23.55;8.00;;;7.40;99.90;;;;;;5010688;28;20080;-69
2021/12/29 02:15:36;;;;;;;26.70;8.57;;;7.40;99.90;;;;;;5011786;28;20099;-69
2021/12/29 02:18:01;;;;;;;23.77;7.60;;;7.40;99.90;;;;;;5027209;28;20046;-70
2021/12/29 02:20:27;;;;;;;19.67;6.75;;;7.40;99.90;;;;;;5011778;28;20049;-69
2021/12/29 02:23:12;;;;;;;18.23;6.47;;;7.40;99.90;;;;;;5011755;28;20038;-69
2021/12/29 02:25:49;;;;;;;16.73;6.40;;;7.40;99.90;;;;;;5011798;28;20042;-69
2021/12/29 02:28:42;;;;;;;19.23;6.60;;;7.40;99.90;;;;;;5010237;28;20517;-69
2021/12/29 02:31:08;;;;;;;19.52;6.22;;;7.40;99.90;;;;;;5010369;28;20518;-69
2021/12/29 02:33:35;;;;;;;22.08;7.80;;;7.40;99.90;;;;;;5011827;28;20046;-69
2021/12/29 02:36:02;;;;;;;16.88;6.35;;;7.40;99.90;;;;;;5011921;28;20030;-69
2021/12/29 02:38:30;;;;;;;21.50;6.45;;;7.40;99.90;;;;;;5010178;28;20052;-68
2021/12/29 02:40:59;;;;;;;16.65;6.05;;;7.40;99.90;;;;;;5026829;28;20048;-69
2021/12/29 02:43:25;;;;;;;15.95;5.80;;;7.40;99.90;;;;;;5011283;28;20168;-70
2021/12/29 02:45:58;;;;;;;13.13;5.68;;;7.50;99.90;;;;;;5011258;28;20116;-69
2021/12/29 02:48:26;;;;;;;16.45;6.30;;;7.50;99.90;;;;;;5011047;28;20048;-69
2021/12/29 02:50:55;;;;;;;15.65;6.13;;;7.50;99.90;;;;;;5009834;28;20494;-69
2021/12/29 02:53:22;;;;;;;16.23;5.18;;;7.50;99.90;;;;;;5011071;28;20044;-69
2021/12/29 02:55:48;;;;;;;12.68;4.80;;;7.50;99.90;;;;;;5011349;28;20038;-69
2021/12/29 02:58:13;;;;;;;12.70;5.53;;;7.50;99.90;;;;;;5011313;28;20048;-69
2021/12/29 03:00:39;;;;;;;12.40;5.00;;;7.50;99.90;;;;;;5009736;28;20089;-69
2021/12/29 03:03:14;;;;;;;13.95;4.80;;;7.50;99.90;;;;;;5010995;28;20054;-69
2021/12/29 03:05:39;;;;;;;13.63;5.85;;;7.50;99.90;;;;;;5011396;28;20049;-69
2021/12/29 03:08:05;;;;;;;12.10;5.32;;;7.60;99.90;;;;;;5011120;28;20034;-69
2021/12/29 03:10:31;;;;;;;13.25;6.10;;;7.60;99.90;;;;;;5011144;28;20042;-69
2021/12/29 03:12:57;;;;;;;15.13;6.25;;;7.60;99.90;;;;;;5025979;28;20052;-69
2021/12/29 03:15:23;;;;;;;13.68;6.35;;;7.60;99.90;;;;;;5011120;28;20383;-69
2021/12/29 03:17:48;;;;;;;18.40;7.68;;;7.60;99.90;;;;;;5011026;28;20118;-69
2021/12/29 03:20:14;;;;;;;18.92;7.85;;;7.70;99.90;;;;;;5010911;28;20064;-69
2021/12/29 03:22:39;;;;;;;24.38;9.43;;;7.60;99.90;;;;;;5010834;28;20458;-69
2021/12/29 03:25:05;;;;;;;24.80;9.23;;;7.70;99.90;;;;;;5011159;28;20387;-69
2021/12/29 03:27:31;;;;;;;21.65;9.27;;;7.70;99.90;;;;;;5009529;28;20549;-69
2021/12/29 03:29:57;;;;;;;26.83;10.32;;;7.70;99.90;;;;;;5010837;28;20053;-69
2021/12/29 03:32:37;;;;;;;27.60;11.45;;;7.70;99.90;;;;;;5010614;28;20037;-69
2021/12/29 03:35:02;;;;;;;31.45;11.70;;;7.70;99.90;;;;;;5010921;28;20502;-69
2021/12/29 03:37:28;;;;;;;33.17;12.00;;;7.70;99.90;;;;;;5009576;28;20045;-70
2021/12/29 03:39:53;;;;;;;28.38;11.27;;;7.70;99.90;;;;;;5010851;28;20045;-69
2021/12/29 03:42:19;;;;;;;28.00;11.48;;;7.70;99.90;;;;;;5010783;28;20046;-70
2021/12/29 03:44:44;;;;;;;29.23;11.82;;;7.70;99.90;;;;;;5010784;28;20081;-70
2021/12/29 03:47:10;;;;;;;30.23;12.70;;;7.70;99.90;;;;;;5010763;28;20053;-70
2021/12/29 03:49:35;;;;;;;33.75;12.45;;;7.70;99.90;;;;;;5011251;28;20041;-70
2021/12/29 03:52:02;;;;;;;30.45;12.52;;;7.70;99.90;;;;;;5011308;28;20046;-70
2021/12/29 03:54:27;;;;;;;27.63;11.63;;;7.70;99.90;;;;;;5009762;28;20042;-69
2021/12/29 03:56:53;;;;;;;33.20;12.38;;;7.80;99.90;;;;;;5010661;28;20605;-69
2021/12/29 03:59:19;;;;;;;32.35;12.02;;;7.80;99.90;;;;;;5013269;28;20057;-68
2021/12/29 04:01:46;;;;;;;26.00;11.02;;;7.80;99.90;;;;;;5013906;28;20046;-69
2021/12/29 04:04:11;;;;;;;22.10;11.32;;;7.80;99.90;;;;;;5014414;28;20049;-69
2021/12/29 04:06:37;;;;;;;22.38;10.77;;;7.70;99.90;;;;;;5014353;28;20038;-68
2021/12/29 04:09:04;;;;;;;23.83;10.57;;;7.80;99.90;;;;;;5029578;28;20042;-68
2021/12/29 04:11:30;;;;;;;27.50;10.93;;;7.80;99.90;;;;;;5013756;28;20077;-69
2021/12/29 04:13:56;;;;;;;20.80;9.82;;;7.80;99.90;;;;;;5013917;28;20884;-69
2021/12/29 04:16:21;;;;;;;20.98;10.60;;;7.80;99.90;;;;;;5014278;28;20080;-69
2021/12/29 04:19:14;;;;;;;22.38;10.05;;;7.80;99.90;;;;;;5014127;28;20069;-69
2021/12/29 04:21:42;;;;;;;17.50;9.40;;;7.80;99.90;;;;;;5013864;28;20037;-68
2021/12/29 04:24:08;;;;;;;21.92;9.80;;;7.80;99.90;;;;;;5014034;28;20092;-69
2021/12/29 04:26:36;;;;;;;17.65;9.55;;;7.80;99.90;;;;;;5013958;28;20037;-69
2021/12/29 04:29:03;;;;;;;18.13;9.15;;;7.80;99.90;;;;;;5028904;28;20116;-69
2021/12/29 04:31:28;;;;;;;16.52;8.77;;;7.80;99.90;;;;;;5013661;28;20034;-69
2021/12/29 04:33:54;;;;;;;15.93;9.05;;;7.80;99.90;;;;;;4995755;28;20569;-69
2021/12/29 04:36:24;;;;;;;24.27;9.43;;;7.80;99.90;;;;;;5028764;28;20128;-70
2021/12/29 04:38:51;;;;;;;15.55;8.75;;;7.90;99.90;;;;;;5013945;28;20045;-69
2021/12/29 04:41:17;;;;;;;23.65;9.27;;;7.80;99.90;;;;;;5013474;28;20514;-69
2021/12/29 04:43:43;;;;;;;17.05;8.88;;;7.90;99.90;;;;;;5013337;28;20045;-69
2021/12/29 04:46:09;;;;;;;17.92;8.40;;;7.80;99.90;;;;;;5013522;28;20552;-69
2021/12/29 04:48:38;;;;;;;19.50;8.40;;;7.90;99.90;;;;;;5013371;28;20136;-69
2021/12/29 04:51:12;;;;;;;17.00;8.98;;;7.80;99.90;;;;;;5028569;28;20720;-69
2021/12/29 04:53:38;;;;;;;20.08;8.82;;;7.90;99.90;;;;;;5013168;28;20053;-69
2021/12/29 04:56:03;;;;;;;16.65;8.48;;;7.90;99.90;;;;;;5013405;28;20057;-69
2021/12/29 04:58:29;;;;;;;19.08;9.02;;;7.90;99.90;;;;;;5013286;28;20537;-69
2021/12/29 05:00:55;;;;;;;16.75;8.68;;;7.90;99.90;;;;;;5013155;28;20387;-69
2021/12/29 05:03:20;;;;;;;20.33;10.20;;;7.90;99.90;;;;;;5012851;28;20092;-69
2021/12/29 05:05:55;;;;;;;14.63;8.77;;;7.90;99.90;;;;;;5013393;28;20046;-69
2021/12/29 05:08:30;;;;;;;19.73;9.90;;;7.90;99.90;;;;;;5013944;28;20045;-69
2021/12/29 05:11:03;;;;;;;20.58;9.32;;;7.90;99.90;;;;;;5013091;28;20053;-69
2021/12/29 05:13:29;;;;;;;;;;;7.90;99.90;;;;;;5013184;28;20135;-69
2021/12/29 05:15:56;;;;;;;20.13;9.85;;;7.90;99.90;;;;;;5028385;28;19917;-70
2021/12/29 05:18:23;;;;;;;22.38;9.85;;;7.90;99.90;;;;;;5013046;28;20049;-69
2021/12/29 05:20:49;;;;;;;18.02;9.93;;;7.90;99.90;;;;;;5012917;28;20772;-69
2021/12/29 05:23:15;;;;;;;25.15;10.95;;;7.90;99.90;;;;;;5012597;28;20117;-69
2021/12/29 05:25:40;;;;;;;20.40;9.93;;;7.90;99.90;;;;;;5012734;28;20068;-69
2021/12/29 05:28:07;;;;;;;21.83;9.85;;;7.90;99.90;;;;;;5012496;28;20088;-69
2021/12/29 05:30:33;;;;;;;20.75;9.82;;;7.90;99.90;;;;;;5011246;28;20454;-69
2021/12/29 05:32:59;;;;;;;22.98;10.75;;;7.90;99.90;;;;;;5012277;28;20042;-69
2021/12/29 05:35:24;;;;;;;18.08;9.65;;;7.90;99.90;;;;;;5012542;28;20092;-69
2021/12/29 05:37:50;;;;;;;26.60;11.45;;;7.90;99.90;;;;;;5012593;28;20494;-69
2021/12/29 05:40:16;;;;;;;19.08;10.88;;;7.90;99.90;;;;;;5011075;28;20049;-70
2021/12/29 05:42:43;;;;;;;21.38;11.10;;;7.80;99.90;;;;;;5012033;28;20125;-70
2021/12/29 05:45:12;;;;;;;20.45;10.75;;;7.90;99.90;;;;;;5012253;28;20041;-70
2021/12/29 05:47:37;;;;;;;28.20;11.05;;;7.80;99.90;;;;;;5012514;28;20088;-69
2021/12/29 05:50:06;;;;;;;25.05;11.57;;;7.90;99.90;;;;;;5012284;28;20042;-69
2021/12/29 05:52:31;;;;;;;22.05;11.38;;;7.90;99.90;;;;;;5011964;28;20041;-69
2021/12/29 05:54:57;;;;;;;24.15;11.77;;;7.90;99.90;;;;;;5012243;28;20418;-69
2021/12/29 05:57:22;;;;;;;20.80;11.95;;;7.90;99.90;;;;;;5010855;28;20557;-69
2021/12/29 05:59:48;;;;;;;20.60;11.98;;;7.90;99.90;;;;;;5012321;28;20069;-70
2021/12/29 06:02:14;;;;;;;26.35;11.57;;;7.90;99.90;;;;;;5012071;28;20042;-69
2021/12/29 06:04:39;;;;;;;27.92;11.95;;;7.90;99.90;;;;;;5012198;28;20049;-70
2021/12/29 06:07:05;;;;;;;22.27;11.23;;;7.90;99.90;;;;;;5012129;28;20076;-69
2021/12/29 06:09:31;;;;;;;24.52;12.23;;;7.90;99.90;;;;;;5011762;28;20194;-69
2021/12/29 06:11:56;;;;;;;27.88;12.07;;;7.90;99.90;;;;;;5011660;28;20038;-69
2021/12/29 06:14:22;;;;;;;27.25;12.15;;;7.90;99.90;;;;;;5012180;28;20406;-69
2021/12/29 06:16:47;;;;;;;27.02;11.93;;;7.90;99.90;;;;;;5027302;28;20033;-69
2021/12/29 06:19:13;;;;;;;19.33;11.73;;;7.90;99.90;;;;;;5011866;28;20033;-70
2021/12/29 06:21:39;;;;;;;22.23;11.32;;;7.90;99.90;;;;;;5011649;28;20562;-70
2021/12/29 06:24:06;;;;;;;19.25;11.32;;;7.90;99.90;;;;;;5011526;28;20046;-69
2021/12/29 06:26:32;;;;;;;20.65;11.05;;;7.90;99.90;;;;;;5012226;28;20113;-70
2021/12/29 06:28:57;;;;;;;22.55;10.23;;;7.90;99.90;;;;;;5012746;28;20530;-70
2021/12/29 06:31:23;;;;;;;19.20;10.20;;;7.90;99.90;;;;;;5011600;28;20105;-70
2021/12/29 06:33:49;;;;;;;18.77;10.73;;;7.90;99.90;;;;;;5011447;28;20045;-70
2021/12/29 06:36:14;;;;;;;17.80;9.48;;;7.90;99.90;;;;;;5011603;28;20038;-70
2021/12/29 06:38:40;;;;;;;19.85;9.75;;;7.90;99.90;;;;;;5011471;28;20037;-69
2021/12/29 06:41:06;;;;;;;14.77;8.63;;;7.90;99.90;;;;;;5011242;28;20108;-70
2021/12/29 06:43:31;;;;;;;18.52;8.40;;;7.90;99.90;;;;;;5011344;28;20049;-70
2021/12/29 06:45:57;;;;;;;16.25;8.80;;;7.90;99.90;;;;;;5011551;28;20053;-69
2021/12/29 06:48:22;;;;;;;16.15;8.50;;;7.90;99.90;;;;;;5011507;28;20637;-69
2021/12/29 06:50:48;;;;;;;19.00;8.73;;;7.90;99.90;;;;;;5011229;28;20147;-69
2021/12/29 06:53:13;;;;;;;17.77;9.55;;;7.90;99.90;;;;;;5009864;28;20041;-69
2021/12/29 06:55:41;;;;;;;18.38;8.75;;;7.90;99.90;;;;;;5011216;28;20046;-69
2021/12/29 06:58:07;;;;;;;18.05;9.13;;;7.90;99.90;;;;;;5009986;28;20494;-69
2021/12/29 07:00:33;;;;;;;22.70;9.30;;;7.90;99.90;;;;;;5011333;28;20049;-70
2021/12/29 07:02:58;;;;;;;22.88;9.85;;;7.90;99.90;;;;;;5011067;28;20042;-69
2021/12/29 07:05:24;;;;;;;21.67;9.43;;;7.90;99.90;;;;;;5026482;28;20194;-70
2021/12/29 07:07:52;;;;;;;20.95;9.18;;;7.90;99.90;;;;;;5010217;28;20061;-70
2021/12/29 07:10:18;;;;;;;22.10;10.40;;;7.90;99.90;;;;;;5009660;28;20056;-70
2021/12/29 07:12:43;;;;;;;26.35;10.57;;;7.90;99.90;;;;;;5009728;28;20410;-70
2021/12/29 07:15:09;;;;;;;23.52;11.23;;;7.90;99.90;;;;;;5010043;28;20038;-69
2021/12/29 07:17:34;;;;;;;26.95;10.85;;;7.90;99.90;;;;;;5011124;28;20049;-69
2021/12/29 07:20:00;;;;;;;29.85;11.98;;;7.90;99.90;;;;;;5011033;28;20053;-69
2021/12/29 07:22:25;;;;;;;30.23;11.68;;;7.90;99.90;;;;;;5010805;28;20034;-69
2021/12/29 07:24:51;;;;;;;26.65;11.27;;;7.90;99.90;;;;;;5010960;28;20130;-69
2021/12/29 07:27:17;;;;;;;22.65;10.05;;;7.90;99.90;;;;;;5011014;28;20042;-69
2021/12/29 07:29:42;;;;;;;29.23;11.30;;;7.90;99.90;;;;;;5009530;28;20081;-69
2021/12/29 07:32:08;;;;;;;21.27;10.52;;;7.90;99.90;;;;;;5010729;28;20041;-70
2021/12/29 07:34:34;;;;;;;24.90;11.45;;;7.90;99.90;;;;;;5014843;28;20041;-70
2021/12/29 07:37:00;;;;;;;23.73;9.80;;;8.00;99.90;;;;;;5029942;28;20041;-70
2021/12/29 07:39:26;;;;;;;21.60;9.73;;;7.90;99.90;;;;;;5034844;28;20549;-70
2021/12/29 07:41:52;;;;;;;22.70;11.00;;;7.90;99.90;;;;;;5034608;28;20061;-70
2021/12/29 07:44:18;;;;;;;29.05;10.15;;;7.90;99.90;;;;;;5035482;28;20112;-70
2021/12/29 07:46:48;;;;;;;27.45;10.25;;;7.90;99.90;;;;;;5027309;28;20092;-70
2021/12/29 07:49:13;;;;;;;27.48;10.02;;;8.00;99.90;;;;;;5025518;28;20033;-70
2021/12/29 07:51:41;;;;;;;26.30;10.57;;;7.90;99.90;;;;;;5030750;28;20041;-70
2021/12/29 07:54:07;;;;;;;22.85;11.18;;;7.90;99.90;;;;;;5034597;28;20033;-70
2021/12/29 07:56:32;;;;;;;23.65;9.95;;;8.00;99.90;;;;;;5034050;28;20051;-70
2021/12/29 07:58:58;;;;;;;28.05;10.35;;;8.00;99.90;;;;;;5033691;28;20037;-70
2021/12/29 08:01:24;;;;;;;36.40;12.00;;;8.00;99.90;;;;;;5032236;28;20041;-70
2021/12/29 08:03:49;;;;;;;28.23;10.95;;;7.90;99.90;;;;;;5031246;28;20043;-70
2021/12/29 08:06:16;;;;;;;28.75;10.93;;;7.90;99.90;;;;;;5031462;28;20037;-69
2021/12/29 08:08:42;;;;;;;29.00;10.88;;;8.00;99.90;;;;;;5032767;28;20061;-70
2021/12/29 08:11:08;;;;;;;27.90;11.82;;;8.00;99.90;;;;;;5034566;28;20069;-70
2021/12/29 08:13:33;;;;;;;29.60;11.13;;;7.90;99.90;;;;;;5034214;28;20033;-70
2021/12/29 08:15:59;;;;;;;28.50;10.82;;;8.00;99.90;;;;;;5033000;28;20504;-70
2021/12/29 08:18:24;;;;;;;29.63;10.95;;;8.00;99.90;;;;;;5035028;28;20094;-70
2021/12/29 08:20:50;;;;;;;25.67;10.73;;;8.00;99.90;;;;;;5034066;28;20076;-70
2021/12/29 08:23:16;;;;;;;31.23;12.23;;;8.00;99.90;;;;;;5035407;28;20056;-69
2021/12/29 08:25:41;;;;;;;25.92;11.13;;;8.00;99.90;;;;;;5035203;28;20045;-69
2021/12/29 08:28:07;;;;;;;31.65;10.20;;;8.00;99.90;;;;;;5035264;28;20518;-70
2021/12/29 08:30:33;;;;;;;24.88;10.27;;;8.00;99.90;;;;;;5033908;28;20084;-71
2021/12/29 08:32:58;;;;;;;29.77;10.75;;;8.00;99.90;;;;;;5035120;28;20029;-69
2021/12/29 08:35:27;;;;;;;31.55;10.30;;;8.00;99.90;;;;;;5034569;28;20120;-69
2021/12/29 08:37:53;;;;;;;21.50;9.77;;;8.00;99.90;;;;;;5034706;28;20068;-70
2021/12/29 08:40:21;;;;;;;28.08;10.32;;;8.00;99.90;;;;;;5034320;28;20560;-70
2021/12/29 08:42:48;;;;;;;23.30;10.02;;;8.00;99.90;;;;;;5016655;28;20065;-69
2021/12/29 08:45:16;;;;;;;24.58;9.48;;;8.00;99.90;;;;;;5031956;28;20520;-70
2021/12/29 08:47:42;;;;;;;24.25;9.60;;;8.00;99.90;;;;;;5033900;28;20072;-71
2021/12/29 08:50:11;;;;;;;21.52;9.00;;;8.10;99.90;;;;;;5035323;28;20041;-71
2021/12/29 08:52:39;;;;;;;25.75;9.35;;;8.10;99.90;;;;;;5037552;28;20045;-71
2021/12/29 08:55:08;;;;;;;23.45;9.32;;;8.10;99.90;;;;;;5037812;28;20049;-70
2021/12/29 08:57:34;;;;;;;22.90;8.95;;;8.20;99.90;;;;;;5038429;28;20038;-70
2021/12/29 09:00:00;;;;;;;19.33;8.20;;;8.10;99.90;;;;;;5020994;28;20046;-70
2021/12/29 09:02:26;;;;;;;18.98;8.63;;;8.10;99.90;;;;;;5038560;28;20041;-71
2021/12/29 09:04:52;;;;;;;21.40;9.15;;;8.10;99.90;;;;;;5035837;28;20050;-69
2021/12/29 09:07:18;;;;;;;21.33;9.23;;;8.20;99.90;;;;;;5037002;28;20120;-69
2021/12/29 09:09:44;;;;;;;21.95;9.82;;;8.10;99.90;;;;;;5038357;28;20084;-70
2021/12/29 09:12:09;;;;;;;16.73;8.15;;;8.20;99.90;;;;;;5037808;28;20033;-70
2021/12/29 09:14:35;;;;;;;24.83;9.88;;;8.20;99.90;;;;;;5036896;28;20120;-70
2021/12/29 09:17:01;;;;;;;26.60;9.30;;;8.20;99.90;;;;;;5037634;28;20077;-70
2021/12/29 09:19:27;;;;;;;22.35;9.30;;;8.20;99.90;;;;;;5037475;28;20037;-71
2021/12/29 09:21:54;;;;;;;20.02;8.95;;;8.20;99.90;;;;;;5020361;28;20040;-69
2021/12/29 09:24:20;;;;;;;19.17;8.75;;;8.20;99.90;;;;;;5036242;28;20045;-70
2021/12/29 09:26:46;;;;;;;22.13;8.77;;;8.20;99.90;;;;;;5020592;28;20418;-70
2021/12/29 09:29:11;;;;;;;18.80;8.05;;;8.20;99.90;;;;;;5037916;28;20038;-70
2021/12/29 09:31:37;;;;;;;22.88;8.57;;;8.20;99.90;;;;;;5037228;28;20041;-69
2021/12/29 09:34:03;;;;;;;19.67;8.27;;;8.20;99.90;;;;;;5038527;28;20498;-70
2021/12/29 09:36:28;;;;;;;15.43;7.68;;;8.30;99.90;;;;;;5036640;28;20033;-70
2021/12/29 09:38:54;;;;;;;18.63;7.93;;;8.30;99.90;;;;;;5036800;28;20639;-70
2021/12/29 09:41:20;;;;;;;17.77;7.68;;;8.30;99.90;;;;;;5038717;28;20100;-70
2021/12/29 09:43:47;;;;;;;18.30;7.88;;;8.30;99.90;;;;;;5036392;28;20552;-70
2021/12/29 09:46:13;;;;;;;18.30;8.18;;;8.30;99.90;;;;;;5036452;28;20071;-71
2021/12/29 09:48:39;;;;;;;16.15;8.05;;;8.30;99.90;;;;;;5036098;28;20052;-70
2021/12/29 09:51:08;;;;;;;17.35;7.95;;;8.30;99.90;;;;;;5019994;28;20053;-70
2021/12/29 09:53:35;;;;;;;17.13;7.28;;;8.30;99.90;;;;;;5035070;28;20053;-69
2021/12/29 09:56:01;;;;;;;19.33;7.53;;;8.40;99.90;;;;;;5037302;28;20486;-70
2021/12/29 09:58:27;;;;;;;19.73;8.13;;;8.40;99.90;;;;;;5037250;28;20048;-70
2021/12/29 10:00:56;;;;;;;22.77;8.60;;;8.40;99.90;;;;;;5037777;28;20037;-70
2021/12/29 10:03:24;;;;;;;15.65;7.93;;;8.40;99.90;;;;;;5037235;28;20517;-70
2021/12/29 10:05:52;;;;;;;22.77;8.68;;;8.40;99.90;;;;;;5038551;28;20060;-69
2021/12/29 10:08:30;;;;;;;22.77;8.52;;;8.40;99.90;;;;;;5036917;28;20383;-69
2021/12/29 10:10:59;;;;;;;22.02;9.00;;;8.40;99.90;;;;;;5035611;28;20490;-70
2021/12/29 10:13:32;;;;;;;21.35;8.63;;;8.40;99.90;;;;;;5035400;28;20073;-70
2021/12/29 10:16:04;;;;;;;23.70;9.18;;;8.40;99.90;;;;;;5036725;28;20053;-70
2021/12/29 10:18:33;;;;;;;26.83;9.23;;;8.40;99.90;;;;;;5036551;28;20147;-69
2021/12/29 10:21:08;;;;;;;19.90;9.73;;;8.50;99.90;;;;;;5034368;28;20049;-70
2021/12/29 10:23:36;;;;;;;19.25;8.32;;;8.40;99.90;;;;;;5034429;28;20076;-70
2021/12/29 10:26:12;;;;;;;24.63;8.65;;;8.40;99.90;;;;;;5034178;28;20168;-70
2021/12/29 10:28:42;;;;;;;19.38;8.55;;;8.50;99.90;;;;;;5038260;28;20041;-70
2021/12/29 10:31:15;;;;;;;18.35;9.32;;;8.50;99.90;;;;;;5038803;28;20048;-70
2021/12/29 10:33:45;;;;;;;20.48;7.90;;;8.50;99.90;;;;;;5037378;28;20042;-70
2021/12/29 10:36:14;;;;;;;26.80;9.80;;;8.50;99.90;;;;;;5038416;28;20124;-70
2021/12/29 10:38:40;;;;;;;19.60;8.82;;;8.50;99.90;;;;;;5037265;28;20589;-70
2021/12/29 10:41:06;;;;;;;20.65;8.88;;;8.50;99.90;;;;;;5035473;28;20056;-69
2021/12/29 10:43:32;;;;;;;19.60;9.13;;;8.50;99.90;;;;;;5034822;28;20034;-69
2021/12/29 10:45:59;;;;;;;23.05;8.85;;;8.60;99.90;;;;;;5036000;28;20052;-70
2021/12/29 10:48:29;;;;;;;17.58;8.73;;;8.50;99.90;;;;;;5036245;28;20828;-70
2021/12/29 10:50:57;;;;;;;25.65;10.02;;;8.50;99.90;;;;;;5034859;28;20092;-70
2021/12/29 10:53:23;;;;;;;19.90;10.00;;;8.50;99.90;;;;;;5034807;28;20042;-70
2021/12/29 10:55:48;;;;;;;19.92;8.45;;;8.50;99.90;;;;;;5034423;28;20091;-70
2021/12/29 10:58:17;;;;;;;29.20;9.85;;;8.50;99.90;;;;;;5036592;28;20493;-70
2021/12/29 11:00:46;;;;;;;26.02;8.73;;;8.50;99.90;;;;;;5035893;28;20052;-70
2021/12/29 11:03:14;;;;;;;22.95;9.20;;;8.50;99.90;;;;;;5037820;28;20121;-70
2021/12/29 11:05:43;;;;;;;19.23;8.75;;;9.10;99.90;;;;;;5019362;28;20041;-71
2021/12/29 11:08:10;;;;;;;22.95;8.70;;;9.20;99.90;;;;;;5037082;28;20048;-72
2021/12/29 11:10:36;;;;;;;23.98;8.57;;;9.00;99.90;;;;;;5038722;28;20052;-73
2021/12/29 11:13:03;;;;;;;20.45;8.77;;;8.90;99.90;;;;;;5031448;28;20042;-70
2021/12/29 11:15:32;;;;;;;21.50;9.10;;;8.80;99.90;;;;;;5017493;28;20033;-72
2021/12/29 11:18:07;;;;;;;19.67;8.43;;;9.00;99.90;;;;;;5031935;28;20046;-71
2021/12/29 11:20:39;;;;;;;17.85;7.93;;;9.00;99.90;;;;;;5031239;28;20065;-71
2021/12/29 11:23:13;;;;;;;23.92;8.43;;;9.00;99.90;;;;;;5013926;28;20049;-69
2021/12/29 11:25:41;;;;;;;25.13;7.53;;;9.10;99.90;;;;;;5014580;28;20045;-71
2021/12/29 11:28:07;;;;;;;28.00;9.00;;;9.10;99.90;;;;;;5014578;28;20073;-69
2021/12/29 11:30:34;;;;;;;22.15;8.57;;;9.20;99.90;;;;;;5033685;28;20041;-70
2021/12/29 11:33:09;;;;;;;24.27;8.35;;;9.20;99.90;;;;;;5050402;28;20045;-71
2021/12/29 11:35:47;;;;;;;28.80;8.60;;;9.30;99.90;;;;;;5037145;28;20037;-71
2021/12/29 11:38:15;;;;;;;24.42;8.82;;;9.30;99.90;;;;;;5054213;28;20037;-70
2021/12/29 11:40:45;;;;;;;24.00;9.00;;;9.30;99.90;;;;;;5037188;28;20103;-68
2021/12/29 11:43:11;;;;;;;27.38;9.80;;;9.40;99.90;;;;;;5036344;28;20103;-68
2021/12/29 11:45:38;;;;;;;18.58;8.07;;;9.30;99.90;;;;;;5034740;28;20041;-69
2021/12/29 11:48:04;;;;;;;22.13;8.02;;;9.40;99.90;;;;;;5033402;28;20037;-68
2021/12/29 11:50:34;;;;;;;20.35;8.52;;;9.40;99.90;;;;;;5034650;28;20068;-68
2021/12/29 11:53:22;;;;;;;22.00;8.48;;;9.40;99.90;;;;;;5033810;28;20041;-68
2021/12/29 11:55:55;;;;;;;24.33;8.63;;;9.50;99.90;;;;;;5033948;28;20034;-68
2021/12/29 11:58:38;;;;;;;23.50;9.75;;;9.50;99.90;;;;;;5031081;28;20080;-68
2021/12/29 12:01:25;;;;;;;20.38;7.80;;;9.40;99.90;;;;;;5031217;28;20121;-68
2021/12/29 12:03:55;;;;;;;25.98;8.05;;;9.40;99.90;;;;;;5031803;28;20037;-68
2021/12/29 12:06:21;;;;;;;21.73;8.05;;;9.30;99.90;;;;;;5033589;28;20045;-68
2021/12/29 12:08:47;;;;;;;23.98;7.45;;;9.40;99.90;;;;;;5032373;28;20045;-68
2021/12/29 12:11:29;;;;;;;25.45;8.98;;;9.40;99.90;;;;;;5032719;28;20037;-68
2021/12/29 12:13:55;;;;;;;26.47;8.87;;;9.40;99.90;;;;;;5035004;28;20033;-68
2021/12/29 12:16:21;;;;;;;33.38;10.13;;;9.30;99.90;;;;;;5034851;28;20300;-69
2021/12/29 12:18:51;;;;;;;24.00;8.57;;;9.30;99.90;;;;;;5035450;28;20044;-70
2021/12/29 12:21:23;;;;;;;37.00;8.57;;;9.30;99.90;;;;;;5038253;28;20064;-68
2021/12/29 12:23:49;;;;;;;24.85;9.30;;;9.30;99.90;;;;;;5036898;28;20132;-69
2021/12/29 12:26:18;;;;;;;30.10;9.23;;;9.30;99.90;;;;;;5038159;28;20065;-69
2021/12/29 12:28:50;;;;;;;26.10;9.27;;;9.30;99.90;;;;;;5036329;28;20042;-69
2021/12/29 12:31:29;;;;;;;24.58;9.43;;;9.30;99.90;;;;;;5037418;28;20081;-69
2021/12/29 12:34:08;;;;;;;32.00;10.07;;;9.30;99.90;;;;;;5019890;28;20037;-68
2021/12/29 12:36:35;;;;;;;29.85;9.75;;;9.30;99.90;;;;;;5036967;28;20509;-68
2021/12/29 12:39:11;;;;;;;26.77;10.13;;;9.30;99.90;;;;;;5036413;28;20049;-68
2021/12/29 12:41:48;;;;;;;27.75;10.07;;;9.20;99.90;;;;;;5036130;28;20038;-68
2021/12/29 12:44:17;;;;;;;37.28;11.02;;;9.30;99.90;;;;;;5037592;28;20405;-68
2021/12/29 12:46:47;;;;;;;30.80;10.70;;;9.20;99.90;;;;;;5037227;28;20121;-68